createdAt,value
2019-01-28T00:00:54.645Z,974.08
2019-01-28T00:01:54.622Z,974.07
2019-01-28T00:02:54.623Z,974.08
2019-01-28T00:03:54.569Z,974.12
2019-01-28T00:04:54.562Z,974.08
2019-01-28T00:05:54.540Z,974.05
2019-01-28T00:06:54.534Z,974.06
2019-01-28T00:07:54.605Z,974.04
2019-01-28T00:08:54.489Z,974.10
2019-01-28T00:09:54.467Z,974.02
2019-01-28T00:10:54.438Z,974.06
2019-01-28T00:11:54.411Z,974.06
2019-01-28T00:12:54.396Z,974.03
2019-01-28T00:13:54.508Z,974.05
2019-01-28T00:14:54.357Z,974.04
2019-01-28T00:15:54.346Z,974.04
2019-01-28T00:16:54.325Z,974.10
2019-01-28T00:17:54.295Z,974.07
2019-01-28T00:18:54.276Z,974.04
2019-01-28T00:19:54.282Z,974.10
2019-01-28T00:20:54.232Z,974.03
2019-01-28T00:21:54.210Z,974.05
2019-01-28T00:22:54.193Z,974.06
2019-01-28T00:23:54.184Z,974.04
2019-01-28T00:24:54.265Z,974.05
2019-01-28T00:25:54.129Z,974.00
2019-01-28T00:26:54.112Z,974.03
2019-01-28T00:27:54.099Z,974.06
2019-01-28T00:28:54.202Z,973.95
2019-01-28T00:29:54.055Z,974.01
2019-01-28T00:30:54.050Z,974.03
2019-01-28T00:31:54.019Z,974.03
2019-01-28T00:32:53.981Z,973.99
2019-01-28T00:33:53.971Z,974.02
2019-01-28T00:34:54.267Z,974.02
2019-01-28T00:35:53.943Z,974.00
2019-01-28T00:36:54.036Z,974.06
2019-01-28T00:37:53.891Z,973.99
2019-01-28T00:38:53.880Z,974.04
2019-01-28T00:39:53.857Z,974.00
2019-01-28T00:40:53.845Z,974.07
2019-01-28T00:41:53.802Z,973.95
2019-01-28T00:42:53.821Z,973.98
2019-01-28T00:43:53.771Z,974.02
2019-01-28T00:44:53.755Z,973.98
2019-01-28T00:45:53.731Z,974.07
2019-01-28T00:46:53.705Z,974.00
2019-01-28T00:47:53.754Z,974.06
2019-01-28T00:48:53.670Z,973.97
2019-01-28T00:49:53.649Z,974.03
2019-01-28T00:50:53.619Z,973.97
2019-01-28T00:51:53.608Z,974.01
2019-01-28T00:52:53.593Z,974.00
2019-01-28T00:53:53.583Z,973.99
2019-01-28T00:54:53.581Z,973.96
2019-01-28T00:55:53.515Z,973.96
2019-01-28T00:56:53.516Z,973.95
2019-01-28T00:57:53.478Z,973.95
2019-01-28T00:58:53.461Z,973.92
2019-01-28T00:59:53.443Z,973.93
2019-01-28T01:00:53.430Z,973.95
2019-01-28T01:01:53.393Z,973.96
2019-01-28T01:02:53.374Z,973.98
2019-01-28T01:03:53.372Z,973.97
2019-01-28T01:04:53.336Z,973.94
2019-01-28T01:05:53.323Z,973.97
2019-01-28T01:06:53.297Z,974.00
2019-01-28T01:07:53.285Z,973.96
2019-01-28T01:08:53.305Z,973.91
2019-01-28T01:09:53.285Z,973.93
2019-01-28T01:10:53.215Z,973.94
2019-01-28T01:11:53.211Z,973.96
2019-01-28T01:12:53.198Z,973.94
2019-01-28T01:13:53.153Z,973.93
2019-01-28T01:14:53.172Z,973.92
2019-01-28T01:15:53.115Z,973.95
2019-01-28T01:16:53.128Z,973.92
2019-01-28T01:17:53.088Z,973.84
2019-01-28T01:18:53.060Z,973.87
2019-01-28T01:19:53.050Z,973.82
2019-01-28T01:20:53.021Z,973.82
2019-01-28T01:21:53.097Z,973.80
2019-01-28T01:22:52.971Z,973.86
2019-01-28T01:23:52.961Z,973.84
2019-01-28T01:24:52.947Z,973.79
2019-01-28T01:25:52.926Z,973.80
2019-01-28T01:26:52.900Z,973.81
2019-01-28T01:27:52.906Z,973.82
2019-01-28T01:28:52.868Z,973.82
2019-01-28T01:29:52.962Z,973.82
2019-01-28T01:30:52.818Z,973.84
2019-01-28T01:31:52.807Z,973.84
2019-01-28T01:32:52.767Z,973.83
2019-01-28T01:33:52.749Z,973.87
2019-01-28T01:34:52.726Z,973.82
2019-01-28T01:35:52.735Z,973.87
2019-01-28T01:36:52.700Z,973.87
2019-01-28T01:37:52.681Z,973.83
2019-01-28T01:38:52.648Z,973.84
2019-01-28T01:39:52.877Z,973.86
2019-01-28T01:40:52.606Z,973.78
2019-01-28T01:41:52.585Z,973.84
2019-01-28T01:42:52.567Z,973.76
2019-01-28T01:43:52.543Z,973.76
2019-01-28T01:44:52.524Z,973.78
2019-01-28T01:45:52.626Z,973.71
2019-01-28T01:46:52.496Z,973.76
2019-01-28T01:47:52.476Z,973.76
2019-01-28T01:48:52.444Z,973.68
2019-01-28T01:49:52.433Z,973.71
2019-01-28T01:50:52.407Z,973.72
2019-01-28T01:51:52.403Z,973.71
2019-01-28T01:52:52.374Z,973.73
2019-01-28T01:53:52.353Z,973.74
2019-01-28T01:54:52.463Z,973.71
2019-01-28T01:55:52.302Z,973.67
2019-01-28T01:56:52.425Z,973.69
2019-01-28T01:57:52.265Z,973.68
2019-01-28T01:58:52.253Z,973.71
2019-01-28T01:59:52.218Z,973.68
2019-01-28T02:00:52.210Z,973.67
2019-01-28T02:01:52.183Z,973.70
2019-01-28T02:02:52.197Z,973.62
2019-01-28T02:03:52.144Z,973.66
2019-01-28T02:04:52.135Z,973.69
2019-01-28T02:05:52.115Z,973.64
2019-01-28T02:06:52.095Z,973.63
2019-01-28T02:07:52.105Z,973.64
2019-01-28T02:08:52.051Z,973.64
2019-01-28T02:09:52.033Z,973.58
2019-01-28T02:10:52.012Z,973.62
2019-01-28T02:11:52.044Z,973.66
2019-01-28T02:12:52.017Z,973.63
2019-01-28T02:13:51.941Z,973.60
2019-01-28T02:14:51.927Z,973.61
2019-01-28T02:15:51.909Z,973.62
2019-01-28T02:16:51.880Z,973.66
2019-01-28T02:17:51.928Z,973.61
2019-01-28T02:18:51.852Z,973.65
2019-01-28T02:19:51.829Z,973.61
2019-01-28T02:20:51.819Z,973.57
2019-01-28T02:21:51.790Z,973.59
2019-01-28T02:22:51.768Z,973.55
2019-01-28T02:23:51.737Z,973.52
2019-01-28T02:24:51.731Z,973.53
2019-01-28T02:25:51.712Z,973.48
2019-01-28T02:26:51.685Z,973.49
2019-01-28T02:27:51.674Z,973.43
2019-01-28T02:28:51.665Z,973.42
2019-01-28T02:29:51.629Z,973.43
2019-01-28T02:30:51.605Z,973.42
2019-01-28T02:31:51.581Z,973.40
2019-01-28T02:32:51.589Z,973.41
2019-01-28T02:33:51.533Z,973.30
2019-01-28T02:34:51.533Z,973.38
2019-01-28T02:35:51.501Z,973.35
2019-01-28T02:36:51.514Z,973.37
2019-01-28T02:37:51.449Z,973.34
2019-01-28T02:38:51.435Z,973.34
2019-01-28T02:39:51.412Z,973.34
2019-01-28T02:40:51.406Z,973.30
2019-01-28T02:41:51.368Z,973.34
2019-01-28T02:42:51.353Z,973.31
2019-01-28T02:43:51.370Z,973.34
2019-01-28T02:44:51.310Z,973.31
2019-01-28T02:45:51.295Z,973.35
2019-01-28T02:46:51.314Z,973.33
2019-01-28T02:47:51.329Z,973.28
2019-01-28T02:48:51.228Z,973.28
2019-01-28T02:49:51.239Z,973.30
2019-01-28T02:50:51.198Z,973.27
2019-01-28T02:51:51.170Z,973.25
2019-01-28T02:52:51.145Z,973.25
2019-01-28T02:53:51.133Z,973.28
2019-01-28T02:54:51.179Z,973.25
2019-01-28T02:55:51.098Z,973.24
2019-01-28T02:56:51.063Z,973.26
2019-01-28T02:57:51.045Z,973.22
2019-01-28T02:58:51.021Z,973.26
2019-01-28T02:59:51.002Z,973.15
2019-01-28T03:00:51.017Z,973.19
2019-01-28T03:01:50.975Z,973.21
2019-01-28T03:02:50.964Z,973.15
2019-01-28T03:03:50.928Z,973.13
2019-01-28T03:04:50.960Z,973.16
2019-01-28T03:05:50.891Z,973.14
2019-01-28T03:06:50.861Z,973.08
2019-01-28T03:07:50.852Z,973.11
2019-01-28T03:08:50.831Z,973.10
2019-01-28T03:09:50.799Z,973.09
2019-01-28T03:10:50.929Z,973.08
2019-01-28T03:11:50.773Z,973.11
2019-01-28T03:12:50.758Z,973.11
2019-01-28T03:13:50.719Z,973.05
2019-01-28T03:14:50.717Z,973.11
2019-01-28T03:15:50.681Z,973.09
2019-01-28T03:16:50.697Z,973.03
2019-01-28T03:17:50.653Z,973.06
2019-01-28T03:18:50.626Z,973.03
2019-01-28T03:19:50.592Z,972.99
2019-01-28T03:20:50.602Z,972.93
2019-01-28T03:21:50.557Z,972.99
2019-01-28T03:22:50.553Z,972.96
2019-01-28T03:23:50.516Z,972.96
2019-01-28T03:24:50.502Z,972.96
2019-01-28T03:25:50.522Z,972.99
2019-01-28T03:26:50.460Z,972.97
2019-01-28T03:27:50.441Z,973.01
2019-01-28T03:28:50.424Z,972.95
2019-01-28T03:29:50.424Z,972.86
2019-01-28T03:30:50.395Z,972.92
2019-01-28T03:31:50.376Z,972.96
2019-01-28T03:32:50.335Z,972.93
2019-01-28T03:33:50.316Z,972.89
2019-01-28T03:34:50.330Z,972.90
2019-01-28T03:35:50.287Z,972.89
2019-01-28T03:36:50.266Z,972.84
2019-01-28T03:37:50.233Z,972.87
2019-01-28T03:38:50.225Z,972.88
2019-01-28T03:39:50.209Z,972.85
2019-01-28T03:40:50.176Z,972.83
2019-01-28T03:41:50.152Z,972.89
2019-01-28T03:42:50.141Z,972.76
2019-01-28T03:43:50.117Z,972.84
2019-01-28T03:44:50.094Z,972.83
2019-01-28T03:45:50.113Z,972.81
2019-01-28T03:46:50.063Z,972.82
2019-01-28T03:47:50.049Z,972.82
2019-01-28T03:48:50.018Z,972.75
2019-01-28T03:49:49.990Z,972.83
2019-01-28T03:50:49.972Z,972.75
2019-01-28T03:51:49.999Z,972.85
2019-01-28T03:52:49.976Z,972.78
2019-01-28T03:53:49.925Z,972.82
2019-01-28T03:54:50.039Z,972.81
2019-01-28T03:55:49.864Z,972.71
2019-01-28T03:56:49.891Z,972.78
2019-01-28T03:57:49.832Z,972.73
2019-01-28T03:58:49.822Z,972.79
2019-01-28T03:59:49.785Z,972.79
2019-01-28T04:00:49.783Z,972.72
2019-01-28T04:01:49.792Z,972.73
2019-01-28T04:02:49.731Z,972.70
2019-01-28T04:03:49.703Z,972.69
2019-01-28T04:04:49.701Z,972.68
2019-01-28T04:05:49.680Z,972.72
2019-01-28T04:06:49.675Z,972.72
2019-01-28T04:07:49.634Z,972.71
2019-01-28T04:08:49.640Z,972.69
2019-01-28T04:09:49.592Z,972.73
2019-01-28T04:10:49.557Z,972.66
2019-01-28T04:11:49.579Z,972.66
2019-01-28T04:12:49.525Z,972.70
2019-01-28T04:13:49.547Z,972.69
2019-01-28T04:14:49.485Z,972.70
2019-01-28T04:15:49.462Z,972.65
2019-01-28T04:16:49.438Z,972.68
2019-01-28T04:17:49.454Z,972.70
2019-01-28T04:18:49.404Z,972.68
2019-01-28T04:19:49.414Z,972.65
2019-01-28T04:20:49.363Z,972.74
2019-01-28T04:21:49.341Z,972.67
2019-01-28T04:22:49.375Z,972.69
2019-01-28T04:23:49.324Z,972.64
2019-01-28T04:24:49.285Z,972.61
2019-01-28T04:25:49.272Z,972.60
2019-01-28T04:26:49.245Z,972.64
2019-01-28T04:27:49.220Z,972.62
2019-01-28T04:28:49.245Z,972.61
2019-01-28T04:29:49.210Z,972.67
2019-01-28T04:30:49.157Z,972.58
2019-01-28T04:31:49.137Z,972.53
2019-01-28T04:32:49.122Z,972.59
2019-01-28T04:33:49.091Z,972.52
2019-01-28T04:34:49.109Z,972.58
2019-01-28T04:35:49.053Z,972.56
2019-01-28T04:36:49.050Z,972.55
2019-01-28T04:37:49.025Z,972.51
2019-01-28T04:38:48.996Z,972.54
2019-01-28T04:39:49.008Z,972.54
2019-01-28T04:40:48.954Z,972.52
2019-01-28T04:41:48.922Z,972.52
2019-01-28T04:42:48.917Z,972.51
2019-01-28T04:43:48.895Z,972.52
2019-01-28T04:44:48.864Z,972.54
2019-01-28T04:45:48.913Z,972.49
2019-01-28T04:46:48.826Z,972.53
2019-01-28T04:47:48.843Z,972.54
2019-01-28T04:48:48.783Z,972.51
2019-01-28T04:49:48.761Z,972.55
2019-01-28T04:50:48.756Z,972.57
2019-01-28T04:51:48.761Z,972.61
2019-01-28T04:52:48.700Z,972.56
2019-01-28T04:53:48.732Z,972.59
2019-01-28T04:54:48.674Z,972.59
2019-01-28T04:55:48.645Z,972.57
2019-01-28T04:56:48.639Z,972.59
2019-01-28T04:57:48.594Z,972.56
2019-01-28T04:58:49.748Z,972.54
2019-01-28T04:59:48.613Z,972.55
2019-01-28T05:00:48.544Z,972.52
2019-01-28T05:01:48.514Z,972.51
2019-01-28T05:02:48.504Z,972.52
2019-01-28T05:03:48.479Z,972.56
2019-01-28T05:04:48.485Z,972.52
2019-01-28T05:05:48.585Z,972.52
2019-01-28T05:06:48.408Z,972.59
2019-01-28T05:07:48.400Z,972.55
2019-01-28T05:08:48.383Z,972.62
2019-01-28T05:09:48.368Z,972.57
2019-01-28T05:10:48.345Z,972.55
2019-01-28T05:11:48.336Z,972.57
2019-01-28T05:12:48.296Z,972.59
2019-01-28T05:13:48.281Z,972.53
2019-01-28T05:14:48.259Z,972.52
2019-01-28T05:15:48.365Z,972.51
2019-01-28T05:16:48.206Z,972.55
2019-01-28T05:17:48.192Z,972.57
2019-01-28T05:18:48.186Z,972.57
2019-01-28T05:19:48.162Z,972.53
2019-01-28T05:20:48.139Z,972.56
2019-01-28T05:21:48.149Z,972.55
2019-01-28T05:22:48.099Z,972.48
2019-01-28T05:23:48.077Z,972.49
2019-01-28T05:24:48.075Z,972.51
2019-01-28T05:25:48.034Z,972.49
2019-01-28T05:26:48.040Z,972.51
2019-01-28T05:27:47.996Z,972.56
2019-01-28T05:28:47.961Z,972.49
2019-01-28T05:29:47.957Z,972.52
2019-01-28T05:30:47.938Z,972.54
2019-01-28T05:31:47.909Z,972.48
2019-01-28T05:32:47.903Z,972.52
2019-01-28T05:33:47.874Z,972.54
2019-01-28T05:34:47.850Z,972.54
2019-01-28T05:35:47.834Z,972.53
2019-01-28T05:36:47.802Z,972.55
2019-01-28T05:37:47.782Z,972.53
2019-01-28T05:38:47.791Z,972.52
2019-01-28T05:39:47.746Z,972.57
2019-01-28T05:40:47.723Z,972.51
2019-01-28T05:41:47.705Z,972.55
2019-01-28T05:42:47.671Z,972.55
2019-01-28T05:43:47.661Z,972.53
2019-01-28T05:44:47.650Z,972.51
2019-01-28T05:45:47.626Z,972.53
2019-01-28T05:46:47.600Z,972.50
2019-01-28T05:47:47.589Z,972.52
2019-01-28T05:48:47.601Z,972.50
2019-01-28T05:49:47.565Z,972.49
2019-01-28T05:50:47.523Z,972.49
2019-01-28T05:51:47.517Z,972.43
2019-01-28T05:52:47.480Z,972.54
2019-01-28T05:53:47.507Z,972.53
2019-01-28T05:54:47.438Z,972.60
2019-01-28T05:55:47.410Z,972.49
2019-01-28T05:56:47.395Z,972.49
2019-01-28T05:57:47.383Z,972.45
2019-01-28T05:58:47.345Z,972.46
2019-01-28T05:59:47.470Z,972.45
2019-01-28T06:00:47.303Z,972.45
2019-01-28T06:01:47.288Z,972.51
2019-01-28T06:02:47.275Z,972.45
2019-01-28T06:03:47.242Z,972.53
2019-01-28T06:04:47.231Z,972.45
2019-01-28T06:05:47.206Z,972.44
2019-01-28T06:06:47.197Z,972.49
2019-01-28T06:07:47.158Z,972.47
2019-01-28T06:08:47.147Z,972.47
2019-01-28T06:09:47.128Z,972.46
2019-01-28T06:10:47.243Z,972.49
2019-01-28T06:11:47.074Z,972.54
2019-01-28T06:12:47.075Z,972.53
2019-01-28T06:13:47.039Z,972.51
2019-01-28T06:14:47.018Z,972.51
2019-01-28T06:15:47.008Z,972.53
2019-01-28T06:16:47.019Z,972.54
2019-01-28T06:17:46.958Z,972.53
2019-01-28T06:18:46.935Z,972.58
2019-01-28T06:19:46.920Z,972.56
2019-01-28T06:20:46.895Z,972.51
2019-01-28T06:21:46.883Z,972.54
2019-01-28T06:22:46.869Z,972.52
2019-01-28T06:23:46.838Z,972.54
2019-01-28T06:24:46.817Z,972.57
2019-01-28T06:25:46.785Z,972.54
2019-01-28T06:26:46.823Z,972.54
2019-01-28T06:27:46.751Z,972.53
2019-01-28T06:28:46.738Z,972.55
2019-01-28T06:29:46.722Z,972.51
2019-01-28T06:30:46.697Z,972.59
2019-01-28T06:31:46.673Z,972.57
2019-01-28T06:32:46.673Z,972.59
2019-01-28T06:33:46.639Z,972.58
2019-01-28T06:34:46.601Z,972.60
2019-01-28T06:35:46.636Z,972.62
2019-01-28T06:36:46.560Z,972.61
2019-01-28T06:37:46.607Z,972.58
2019-01-28T06:38:46.529Z,972.56
2019-01-28T06:39:46.494Z,972.61
2019-01-28T06:40:46.500Z,972.62
2019-01-28T06:41:46.455Z,972.59
2019-01-28T06:42:46.440Z,972.60
2019-01-28T06:43:46.433Z,972.52
2019-01-28T06:44:46.406Z,972.64
2019-01-28T06:45:46.376Z,972.57
2019-01-28T06:46:46.365Z,972.61
2019-01-28T06:47:47.145Z,972.52
2019-01-28T06:48:46.354Z,972.61
2019-01-28T06:49:46.355Z,972.61
2019-01-28T06:50:46.272Z,972.59
2019-01-28T06:51:46.265Z,972.60
2019-01-28T06:52:46.248Z,972.59
2019-01-28T06:53:46.216Z,972.63
2019-01-28T06:54:46.195Z,972.63
2019-01-28T06:55:46.176Z,972.63
2019-01-28T06:56:46.148Z,972.60
2019-01-28T06:57:46.377Z,972.68
2019-01-28T06:58:46.134Z,972.66
2019-01-28T06:59:46.094Z,972.69
2019-01-28T07:00:46.065Z,972.70
2019-01-28T07:01:46.192Z,972.74
2019-01-28T07:02:46.031Z,972.74
2019-01-28T07:03:46.011Z,972.73
2019-01-28T07:04:45.980Z,972.71
2019-01-28T07:05:46.232Z,972.70
2019-01-28T07:06:45.945Z,972.69
2019-01-28T07:07:45.950Z,972.73
2019-01-28T07:08:45.912Z,972.73
2019-01-28T07:09:45.889Z,972.76
2019-01-28T07:10:45.867Z,972.74
2019-01-28T07:11:45.842Z,972.74
2019-01-28T07:12:45.849Z,972.79
2019-01-28T07:13:45.812Z,972.78
2019-01-28T07:14:45.782Z,972.77
2019-01-28T07:15:45.761Z,972.81
2019-01-28T07:16:45.806Z,972.81
2019-01-28T07:17:45.726Z,972.79
2019-01-28T07:18:45.703Z,972.79
2019-01-28T07:19:45.681Z,972.79
2019-01-28T07:20:45.659Z,972.80
2019-01-28T07:21:45.630Z,972.79
2019-01-28T07:22:45.642Z,972.82
2019-01-28T07:23:45.595Z,972.80
2019-01-28T07:24:45.564Z,972.80
2019-01-28T07:25:45.563Z,972.81
2019-01-28T07:26:45.545Z,972.79
2019-01-28T07:27:45.506Z,972.83
2019-01-28T07:28:45.534Z,972.85
2019-01-28T07:29:45.483Z,972.86
2019-01-28T07:30:45.469Z,972.87
2019-01-28T07:31:45.423Z,972.87
2019-01-28T07:32:45.404Z,972.90
2019-01-28T07:33:45.430Z,972.87
2019-01-28T07:34:45.357Z,972.90
2019-01-28T07:35:45.586Z,972.90
2019-01-28T07:36:45.340Z,972.92
2019-01-28T07:37:45.298Z,972.97
2019-01-28T07:38:45.297Z,972.94
2019-01-28T07:39:45.268Z,972.93
2019-01-28T07:40:45.393Z,972.93
2019-01-28T07:41:45.220Z,972.92
2019-01-28T07:42:45.204Z,972.93
2019-01-28T07:43:45.175Z,973.00
2019-01-28T07:44:45.165Z,972.96
2019-01-28T07:45:45.859Z,972.99
2019-01-28T07:46:45.159Z,973.01
2019-01-28T07:47:45.093Z,973.07
2019-01-28T07:48:45.069Z,973.06
2019-01-28T07:49:45.058Z,973.06
2019-01-28T07:50:45.039Z,973.08
2019-01-28T07:51:45.138Z,973.10
2019-01-28T07:52:44.996Z,973.07
2019-01-28T07:53:45.038Z,973.11
2019-01-28T07:54:44.961Z,973.09
2019-01-28T07:55:44.984Z,973.12
2019-01-28T07:56:44.953Z,973.16
2019-01-28T07:57:44.889Z,973.14
2019-01-28T07:58:44.874Z,973.17
2019-01-28T07:59:44.846Z,973.19
2019-01-28T08:00:44.828Z,973.18
2019-01-28T08:01:44.842Z,973.18
2019-01-28T08:02:44.785Z,973.17
2019-01-28T08:03:44.777Z,973.17
2019-01-28T08:04:44.747Z,973.19
2019-01-28T08:05:44.722Z,973.17
2019-01-28T08:06:44.751Z,973.23
2019-01-28T08:07:44.694Z,973.23
2019-01-28T08:08:44.676Z,973.22
2019-01-28T08:09:44.673Z,973.27
2019-01-28T08:10:44.621Z,973.27
2019-01-28T08:11:44.612Z,973.30
2019-01-28T08:12:44.580Z,973.29
2019-01-28T08:13:44.598Z,973.31
2019-01-28T08:14:44.540Z,973.31
2019-01-28T08:15:44.528Z,973.30
2019-01-28T08:16:44.500Z,973.32
2019-01-28T08:17:44.474Z,973.27
2019-01-28T08:18:44.491Z,973.28
2019-01-28T08:19:44.430Z,973.27
2019-01-28T08:20:44.427Z,973.30
2019-01-28T08:21:44.405Z,973.31
2019-01-28T08:22:44.383Z,973.32
2019-01-28T08:23:44.384Z,973.29
2019-01-28T08:24:44.387Z,973.33
2019-01-28T08:25:44.308Z,973.32
2019-01-28T08:26:44.303Z,973.31
2019-01-28T08:27:44.270Z,973.33
2019-01-28T08:28:44.261Z,973.32
2019-01-28T08:29:44.300Z,973.33
2019-01-28T08:30:44.210Z,973.38
2019-01-28T08:31:44.201Z,973.36
2019-01-28T08:32:44.172Z,973.36
2019-01-28T08:33:44.161Z,973.40
2019-01-28T08:34:44.137Z,973.39
2019-01-28T08:35:44.118Z,973.35
2019-01-28T08:36:44.090Z,973.39
2019-01-28T08:37:44.063Z,973.38
2019-01-28T08:38:44.066Z,973.37
2019-01-28T08:39:44.029Z,973.40
2019-01-28T08:40:44.153Z,973.42
2019-01-28T08:41:43.990Z,973.40
2019-01-28T08:42:43.965Z,973.42
2019-01-28T08:43:43.947Z,973.43
2019-01-28T08:44:43.934Z,973.46
2019-01-28T08:45:43.903Z,973.46
2019-01-28T08:46:43.916Z,973.45
2019-01-28T08:47:43.871Z,973.52
2019-01-28T08:48:43.845Z,973.51
2019-01-28T08:49:43.821Z,973.50
2019-01-28T08:50:43.819Z,973.55
2019-01-28T08:51:43.794Z,973.54
2019-01-28T08:52:43.768Z,973.56
2019-01-28T08:53:43.750Z,973.57
2019-01-28T08:54:43.718Z,973.60
2019-01-28T08:55:43.715Z,973.57
2019-01-28T08:56:43.676Z,973.60
2019-01-28T08:57:43.744Z,973.60
2019-01-28T08:58:43.658Z,973.62
2019-01-28T08:59:43.614Z,973.65
2019-01-28T09:00:43.612Z,973.65
2019-01-28T09:01:43.578Z,973.66
2019-01-28T09:02:43.553Z,973.65
2019-01-28T09:03:43.546Z,973.69
2019-01-28T09:04:43.510Z,973.69
2019-01-28T09:05:43.499Z,973.70
2019-01-28T09:06:43.482Z,973.70
2019-01-28T09:07:43.478Z,973.71
2019-01-28T09:08:43.472Z,973.73
2019-01-28T09:09:43.421Z,973.73
2019-01-28T09:10:43.400Z,973.71
2019-01-28T09:11:43.387Z,973.72
2019-01-28T09:12:43.352Z,973.73
2019-01-28T09:13:43.339Z,973.72
2019-01-28T09:14:43.322Z,973.73
2019-01-28T09:15:43.291Z,973.70
2019-01-28T09:16:43.269Z,973.74
2019-01-28T09:17:43.247Z,973.78
2019-01-28T09:18:43.381Z,973.77
2019-01-28T09:19:43.206Z,973.79
2019-01-28T09:20:43.185Z,973.81
2019-01-28T09:21:43.302Z,973.78
2019-01-28T09:22:43.150Z,973.83
2019-01-28T09:23:43.137Z,973.85
2019-01-28T09:24:43.148Z,973.87
2019-01-28T09:25:43.084Z,973.86
2019-01-28T09:26:43.087Z,973.87
2019-01-28T09:27:43.051Z,973.92
2019-01-28T09:28:43.047Z,973.93
2019-01-28T09:29:43.014Z,973.93
2019-01-28T09:30:43.007Z,973.98
2019-01-28T09:31:42.983Z,973.99
2019-01-28T09:32:42.967Z,973.98
2019-01-28T09:33:42.934Z,974.02
2019-01-28T09:34:42.901Z,974.05
2019-01-28T09:35:42.890Z,974.03
2019-01-28T09:36:42.879Z,974.02
2019-01-28T09:37:42.850Z,974.07
2019-01-28T09:38:42.834Z,974.07
2019-01-28T09:39:42.821Z,974.11
2019-01-28T09:40:42.789Z,974.12
2019-01-28T09:41:42.784Z,974.09
2019-01-28T09:42:42.742Z,974.13
2019-01-28T09:43:42.737Z,974.14
2019-01-28T09:44:42.714Z,974.13
2019-01-28T09:45:42.689Z,974.16
2019-01-28T09:46:42.666Z,974.12
2019-01-28T09:47:42.652Z,974.20
2019-01-28T09:48:42.638Z,974.18
2019-01-28T09:49:42.613Z,974.15
2019-01-28T09:50:42.594Z,974.20
2019-01-28T09:51:42.592Z,974.16
2019-01-28T09:52:42.545Z,974.18
2019-01-28T09:53:42.544Z,974.18
2019-01-28T09:54:43.659Z,974.21
2019-01-28T09:55:42.484Z,974.24
2019-01-28T09:56:42.460Z,974.26
2019-01-28T09:57:42.450Z,974.27
2019-01-28T09:58:42.448Z,974.28
2019-01-28T09:59:42.409Z,974.30
2019-01-28T10:00:42.382Z,974.31
2019-01-28T10:01:42.373Z,974.33
2019-01-28T10:02:42.339Z,974.34
2019-01-28T10:03:42.351Z,974.35
2019-01-28T10:04:42.311Z,974.36
2019-01-28T10:05:42.686Z,974.34
2019-01-28T10:06:42.269Z,974.40
2019-01-28T10:07:42.246Z,974.35
2019-01-28T10:08:42.231Z,974.40
2019-01-28T10:09:42.208Z,974.43
2019-01-28T10:10:42.198Z,974.46
2019-01-28T10:11:42.177Z,974.47
2019-01-28T10:12:42.150Z,974.46
2019-01-28T10:13:42.129Z,974.49
2019-01-28T10:14:42.100Z,974.48
2019-01-28T10:15:42.086Z,974.55
2019-01-28T10:16:42.105Z,974.53
2019-01-28T10:17:42.048Z,974.58
2019-01-28T10:18:42.190Z,974.54
2019-01-28T10:19:42.005Z,974.57
2019-01-28T10:20:44.660Z,974.62
2019-01-28T10:21:41.967Z,974.66
2019-01-28T10:22:41.945Z,974.65
2019-01-28T10:23:41.928Z,974.68
2019-01-28T10:24:41.908Z,974.71
2019-01-28T10:25:41.935Z,974.68
2019-01-28T10:26:41.865Z,974.72
2019-01-28T10:27:41.845Z,974.73
2019-01-28T10:28:41.816Z,974.75
2019-01-28T10:29:41.812Z,974.71
2019-01-28T10:30:41.789Z,974.76
2019-01-28T10:31:41.777Z,974.76
2019-01-28T10:32:41.754Z,974.78
2019-01-28T10:33:41.720Z,974.81
2019-01-28T10:34:41.708Z,974.81
2019-01-28T10:35:41.684Z,974.81
2019-01-28T10:36:41.662Z,974.86
2019-01-28T10:37:41.646Z,974.87
2019-01-28T10:38:41.622Z,974.85
2019-01-28T10:39:41.595Z,974.90
2019-01-28T10:40:41.577Z,974.90
2019-01-28T10:41:41.604Z,974.90
2019-01-28T10:42:41.545Z,974.91
2019-01-28T10:43:41.911Z,974.92
2019-01-28T10:44:42.189Z,975.00
2019-01-28T10:45:41.478Z,974.99
2019-01-28T10:46:41.728Z,975.01
2019-01-28T10:47:42.040Z,975.02
2019-01-28T10:48:41.419Z,975.05
2019-01-28T10:49:41.395Z,975.06
2019-01-28T10:50:41.667Z,975.05
2019-01-28T10:51:41.369Z,975.11
2019-01-28T10:52:41.333Z,975.12
2019-01-28T10:53:41.354Z,975.14
2019-01-28T10:54:41.613Z,975.10
2019-01-28T10:55:41.660Z,975.11
2019-01-28T10:56:41.997Z,975.14
2019-01-28T10:57:41.984Z,975.08
2019-01-28T10:58:41.221Z,975.13
2019-01-28T10:59:41.351Z,975.14
2019-01-28T11:00:41.176Z,975.16
2019-01-28T11:01:41.169Z,975.25
2019-01-28T11:02:41.164Z,975.17
2019-01-28T11:03:41.139Z,975.24
2019-01-28T11:04:41.119Z,975.28
2019-01-28T11:05:41.392Z,975.25
2019-01-28T11:06:41.254Z,975.28
2019-01-28T11:07:41.346Z,975.35
2019-01-28T11:08:41.021Z,975.35
2019-01-28T11:09:41.045Z,975.35
2019-01-28T11:10:41.024Z,975.36
2019-01-28T11:11:42.431Z,975.39
2019-01-28T11:12:41.001Z,975.40
2019-01-28T11:13:40.963Z,975.40
2019-01-28T11:14:41.029Z,975.43
2019-01-28T11:15:40.970Z,975.44
2019-01-28T11:16:41.548Z,975.45
2019-01-28T11:17:42.740Z,975.47
2019-01-28T11:18:40.819Z,975.45
2019-01-28T11:19:40.807Z,975.47
2019-01-28T11:20:40.879Z,975.48
2019-01-28T11:21:40.774Z,975.57
2019-01-28T11:22:40.814Z,975.52
2019-01-28T11:23:40.720Z,975.55
2019-01-28T11:24:40.735Z,975.62
2019-01-28T11:25:40.806Z,975.61
2019-01-28T11:26:40.951Z,975.60
2019-01-28T11:27:40.656Z,975.67
2019-01-28T11:28:40.649Z,975.68
2019-01-28T11:29:40.720Z,975.73
2019-01-28T11:30:40.670Z,975.74
2019-01-28T11:31:40.702Z,975.77
2019-01-28T11:32:40.668Z,975.71
2019-01-28T11:33:40.622Z,975.74
2019-01-28T11:34:40.772Z,975.80
2019-01-28T11:35:41.173Z,975.80
2019-01-28T11:36:40.476Z,975.84
2019-01-28T11:37:40.984Z,975.83
2019-01-28T11:38:40.401Z,975.84
2019-01-28T11:39:40.662Z,975.94
2019-01-28T11:40:40.450Z,975.91
2019-01-28T11:41:40.447Z,975.97
2019-01-28T11:42:40.398Z,975.93
2019-01-28T11:43:40.440Z,976.02
2019-01-28T11:44:40.287Z,976.08
2019-01-28T11:45:40.407Z,976.05
2019-01-28T11:46:40.297Z,976.03
2019-01-28T11:47:40.362Z,976.09
2019-01-28T11:48:40.251Z,976.13
2019-01-28T11:49:40.188Z,976.14
2019-01-28T11:50:40.172Z,976.16
2019-01-28T11:51:40.180Z,976.13
2019-01-28T11:52:40.130Z,976.17
2019-01-28T11:53:40.135Z,976.22
2019-01-28T11:54:40.091Z,976.23
2019-01-28T11:55:40.061Z,976.26
2019-01-28T11:56:40.071Z,976.34
2019-01-28T11:57:40.010Z,976.30
2019-01-28T11:58:40.005Z,976.30
2019-01-28T11:59:39.985Z,976.32
2019-01-28T12:00:39.946Z,976.40
2019-01-28T12:01:39.940Z,976.38
2019-01-28T12:02:40.056Z,976.40
2019-01-28T12:03:39.889Z,976.42
2019-01-28T12:04:39.877Z,976.46
2019-01-28T12:05:39.846Z,976.47
2019-01-28T12:06:39.836Z,976.47
2019-01-28T12:07:39.815Z,976.47
2019-01-28T12:08:39.816Z,976.52
2019-01-28T12:09:39.782Z,976.51
2019-01-28T12:10:39.753Z,976.57
2019-01-28T12:11:39.739Z,976.62
2019-01-28T12:12:39.698Z,976.64
2019-01-28T12:13:39.708Z,976.60
2019-01-28T12:14:39.671Z,976.63
2019-01-28T12:15:39.644Z,976.64
2019-01-28T12:16:39.625Z,976.64
2019-01-28T12:17:39.605Z,976.62
2019-01-28T12:18:39.663Z,976.66
2019-01-28T12:19:39.570Z,976.67
2019-01-28T12:20:39.535Z,976.72
2019-01-28T12:21:39.518Z,976.71
2019-01-28T12:22:39.502Z,976.75
2019-01-28T12:23:39.488Z,976.80
2019-01-28T12:24:39.463Z,976.83
2019-01-28T12:25:39.477Z,976.85
2019-01-28T12:26:39.421Z,976.85
2019-01-28T12:27:39.394Z,976.88
2019-01-28T12:28:39.379Z,976.90